createdAt,value
2017-06-04T00:00:10.193Z,0
2017-06-04T00:01:19.086Z,0
2017-06-04T00:02:28.304Z,0
2017-06-04T00:03:37.521Z,0
2017-06-04T00:04:46.422Z,0
2017-06-04T00:05:55.815Z,0
2017-06-04T00:07:05.031Z,0
2017-06-04T00:08:14.575Z,0
2017-06-04T00:09:23.795Z,0
2017-06-04T00:10:32.686Z,0
2017-06-04T00:11:42.204Z,0
2017-06-04T00:12:51.421Z,0
2017-06-04T00:14:00.318Z,0
2017-06-04T00:15:10.184Z,0
2017-06-04T00:16:19.078Z,0
2017-06-04T00:17:28.272Z,0
2017-06-04T00:18:37.160Z,0
2017-06-04T00:19:46.707Z,0
2017-06-04T00:20:55.924Z,0
2017-06-04T00:22:04.819Z,0
2017-06-04T00:23:13.715Z,0
2017-06-04T00:24:22.604Z,0
2017-06-04T00:25:31.499Z,0
2017-06-04T00:26:40.732Z,0
2017-06-04T00:27:49.947Z,0
2017-06-04T00:28:58.990Z,0
2017-06-04T00:30:08.206Z,0
2017-06-04T00:31:17.101Z,0
2017-06-04T00:32:26.314Z,0
2017-06-04T00:33:35.529Z,0
2017-06-04T00:34:44.469Z,0
2017-06-04T00:35:53.362Z,0
2017-06-04T00:37:02.257Z,0
2017-06-04T00:38:11.471Z,0
2017-06-04T00:39:20.688Z,0
2017-06-04T00:40:30.209Z,0
2017-06-04T00:41:39.431Z,0
2017-06-04T00:42:48.652Z,0
2017-06-04T00:43:57.868Z,0
2017-06-04T00:45:06.764Z,0
2017-06-04T00:46:15.706Z,0
2017-06-04T00:47:24.599Z,0
2017-06-04T00:48:33.822Z,0
2017-06-04T00:49:42.716Z,0
2017-06-04T00:50:51.940Z,0
2017-06-04T00:52:01.009Z,0
2017-06-04T00:53:09.910Z,0
2017-06-04T00:54:19.128Z,0
2017-06-04T00:55:28.021Z,0
2017-06-04T00:56:37.563Z,0
2017-06-04T00:57:46.606Z,0
2017-06-04T00:58:55.825Z,0
2017-06-04T01:00:04.716Z,0
2017-06-04T01:01:13.937Z,0
2017-06-04T01:02:23.151Z,0
2017-06-04T01:03:32.347Z,0
2017-06-04T01:04:41.238Z,0
2017-06-04T01:05:50.456Z,0
2017-06-04T01:06:59.996Z,0
2017-06-04T01:08:08.887Z,0
2017-06-04T01:09:17.928Z,0
2017-06-04T01:10:26.825Z,0
2017-06-04T01:11:36.038Z,0
2017-06-04T01:12:44.927Z,0
2017-06-04T01:13:53.821Z,0
2017-06-04T01:15:02.866Z,0
2017-06-04T01:16:11.759Z,0
2017-06-04T01:17:20.648Z,0
2017-06-04T01:18:29.539Z,0
2017-06-04T01:19:38.431Z,0
2017-06-04T01:20:47.473Z,0
2017-06-04T01:21:56.366Z,0
2017-06-04T01:23:05.580Z,0
2017-06-04T01:24:14.799Z,0
2017-06-04T01:25:24.023Z,0
2017-06-04T01:26:33.071Z,0
2017-06-04T01:27:41.962Z,0
2017-06-04T01:28:51.178Z,0
2017-06-04T01:30:00.067Z,0
2017-06-04T01:31:08.962Z,0
2017-06-04T01:32:18.180Z,0
2017-06-04T01:33:27.101Z,0
2017-06-04T01:34:36.658Z,0
2017-06-04T01:35:45.549Z,0
2017-06-04T01:36:54.437Z,0
2017-06-04T01:38:03.579Z,0
2017-06-04T01:39:12.471Z,0
2017-06-04T01:40:21.364Z,0
2017-06-04T01:41:30.258Z,0
2017-06-04T01:42:39.148Z,0
2017-06-04T01:43:48.193Z,0
2017-06-04T01:44:57.410Z,0
2017-06-04T01:46:06.962Z,0
2017-06-04T01:47:15.853Z,0
2017-06-04T01:48:24.744Z,0
2017-06-04T01:49:33.685Z,0
2017-06-04T01:50:42.573Z,0
2017-06-04T01:51:51.470Z,0
2017-06-04T01:53:00.687Z,0
2017-06-04T01:54:09.578Z,0
2017-06-04T01:55:18.946Z,0
2017-06-04T01:56:27.841Z,0
2017-06-04T01:57:36.736Z,0
2017-06-04T01:58:45.628Z,0
2017-06-04T01:59:54.841Z,0
2017-06-04T02:01:03.785Z,0
2017-06-04T02:02:12.682Z,0
2017-06-04T02:03:21.572Z,0
2017-06-04T02:04:30.788Z,0
2017-06-04T02:05:39.675Z,0
2017-06-04T02:06:49.044Z,0
2017-06-04T02:07:57.939Z,0
2017-06-04T02:09:07.155Z,0
2017-06-04T02:10:16.695Z,0
2017-06-04T02:11:26.237Z,0
2017-06-04T02:12:35.279Z,0
2017-06-04T02:13:44.497Z,0
2017-06-04T02:14:53.716Z,0
2017-06-04T02:16:02.609Z,0
2017-06-04T02:17:11.500Z,0
2017-06-04T02:18:20.542Z,0
2017-06-04T02:19:29.433Z,0
2017-06-04T02:20:38.327Z,0
2017-06-04T02:21:47.547Z,0
2017-06-04T02:22:56.440Z,0
2017-06-04T02:24:05.485Z,0
2017-06-04T02:25:14.699Z,0
2017-06-04T02:26:23.680Z,0
2017-06-04T02:27:32.573Z,0
2017-06-04T02:28:41.462Z,0
2017-06-04T02:29:50.356Z,0
2017-06-04T02:30:59.573Z,0
2017-06-04T02:32:09.124Z,0
2017-06-04T02:33:18.345Z,0
2017-06-04T02:34:27.253Z,0
2017-06-04T02:35:36.444Z,0
2017-06-04T02:36:45.338Z,0
2017-06-04T02:37:54.558Z,0
2017-06-04T02:39:03.779Z,0
2017-06-04T02:40:12.672Z,0
2017-06-04T02:41:21.893Z,0
2017-06-04T02:42:30.787Z,0
2017-06-04T02:43:39.679Z,0
2017-06-04T02:44:48.573Z,0
2017-06-04T02:45:57.466Z,0
2017-06-04T02:47:06.658Z,0
2017-06-04T02:48:15.551Z,0
2017-06-04T02:49:24.771Z,0
2017-06-04T02:50:33.663Z,0
2017-06-04T02:51:42.890Z,0
2017-06-04T02:52:52.111Z,0
2017-06-04T02:54:01.328Z,0
2017-06-04T02:55:10.218Z,0
2017-06-04T02:56:19.112Z,0
2017-06-04T02:57:28.006Z,0
2017-06-04T02:58:36.954Z,0
2017-06-04T02:59:46.524Z,0
2017-06-04T03:00:55.417Z,0
2017-06-04T03:02:04.307Z,0
2017-06-04T03:03:13.195Z,0
2017-06-04T03:04:22.089Z,0
2017-06-04T03:05:30.980Z,0
2017-06-04T03:06:39.875Z,0
2017-06-04T03:07:48.767Z,0
2017-06-04T03:08:57.663Z,0
2017-06-04T03:10:07.033Z,0
2017-06-04T03:11:15.922Z,0
2017-06-04T03:12:25.138Z,0
2017-06-04T03:13:34.058Z,0
2017-06-04T03:14:42.951Z,0
2017-06-04T03:15:52.170Z,0
2017-06-04T03:17:01.067Z,0
2017-06-04T03:18:09.960Z,0
2017-06-04T03:19:19.181Z,0
2017-06-04T03:20:28.402Z,0
2017-06-04T03:21:37.348Z,5
2017-06-04T03:22:46.564Z,5
2017-06-04T03:23:55.455Z,5
2017-06-04T03:25:04.346Z,5
2017-06-04T03:26:13.570Z,5
2017-06-04T03:27:22.560Z,5
2017-06-04T03:28:31.451Z,5
2017-06-04T03:29:40.685Z,5
2017-06-04T03:30:49.906Z,5
2017-06-04T03:31:58.797Z,5
2017-06-04T03:33:07.743Z,5
2017-06-04T03:34:16.636Z,5
2017-06-04T03:35:25.528Z,5
2017-06-04T03:36:34.741Z,5
2017-06-04T03:37:43.958Z,5
2017-06-04T03:38:53.000Z,5
2017-06-04T03:40:01.891Z,5
2017-06-04T03:41:10.791Z,5
2017-06-04T03:42:19.683Z,5
2017-06-04T03:43:28.583Z,10
2017-06-04T03:44:37.848Z,15
2017-06-04T03:45:46.739Z,20
2017-06-04T03:46:56.280Z,25
2017-06-04T03:48:05.172Z,30
2017-06-04T03:49:14.064Z,30
2017-06-04T03:50:23.657Z,35
2017-06-04T03:51:32.548Z,30
2017-06-04T03:52:41.435Z,30
2017-06-04T03:53:50.329Z,40
2017-06-04T03:54:59.223Z,40
2017-06-04T03:56:08.866Z,30
2017-06-04T03:57:17.763Z,40
2017-06-04T03:58:26.656Z,50
2017-06-04T03:59:35.550Z,45
2017-06-04T04:00:44.437Z,55
2017-06-04T04:01:53.425Z,50
2017-06-04T04:03:02.316Z,35
2017-06-04T04:04:11.536Z,30
2017-06-04T04:05:20.757Z,15
2017-06-04T04:06:29.687Z,10
2017-06-04T04:07:38.680Z,15
2017-06-04T04:08:47.573Z,15
2017-06-04T04:09:56.461Z,15
2017-06-04T04:11:05.351Z,15
2017-06-04T04:12:14.272Z,15
2017-06-04T04:13:23.527Z,15
2017-06-04T04:14:32.744Z,10
2017-06-04T04:15:42.288Z,10
2017-06-04T04:16:51.186Z,15
2017-06-04T04:18:00.073Z,15
2017-06-04T04:19:09.111Z,10
2017-06-04T04:20:18.330Z,10
2017-06-04T04:21:27.230Z,15
2017-06-04T04:22:36.448Z,20
2017-06-04T04:23:45.661Z,20
2017-06-04T04:24:54.878Z,20
2017-06-04T04:26:03.771Z,20
2017-06-04T04:27:12.670Z,20
2017-06-04T04:28:21.557Z,20
2017-06-04T04:29:30.774Z,20
2017-06-04T04:30:39.716Z,20
2017-06-04T04:31:48.613Z,20
2017-06-04T04:32:58.152Z,20
2017-06-04T04:34:07.364Z,20
2017-06-04T04:35:16.258Z,15
2017-06-04T04:36:25.201Z,15
2017-06-04T04:37:34.447Z,20
2017-06-04T04:38:43.346Z,20
2017-06-04T04:39:52.236Z,20
2017-06-04T04:41:01.454Z,20
2017-06-04T04:42:10.923Z,20
2017-06-04T04:43:19.810Z,20
2017-06-04T04:44:28.751Z,20
2017-06-04T04:45:37.672Z,20
2017-06-04T04:46:46.566Z,20
2017-06-04T04:47:55.453Z,35
2017-06-04T04:49:04.346Z,40
2017-06-04T04:50:13.237Z,55
2017-06-04T04:51:22.125Z,65
2017-06-04T04:52:31.014Z,75
2017-06-04T04:53:39.954Z,85
2017-06-04T04:54:48.850Z,90
2017-06-04T04:55:57.742Z,85
2017-06-04T04:57:06.957Z,80
2017-06-04T04:58:15.848Z,70
2017-06-04T04:59:24.737Z,65
2017-06-04T05:00:34.281Z,80
2017-06-04T05:01:43.179Z,90
2017-06-04T05:02:52.071Z,90
2017-06-04T05:04:00.962Z,90
2017-06-04T05:05:10.286Z,90
2017-06-04T05:06:19.178Z,90
2017-06-04T05:07:28.395Z,90
2017-06-04T05:08:37.287Z,90
2017-06-04T05:09:46.175Z,90
2017-06-04T05:10:55.717Z,90
2017-06-04T05:12:04.609Z,90
2017-06-04T05:13:13.834Z,90
2017-06-04T05:14:22.751Z,90
2017-06-04T05:15:31.970Z,90
2017-06-04T05:16:41.010Z,90
2017-06-04T05:17:49.902Z,90
2017-06-04T05:18:59.116Z,90
2017-06-04T05:20:08.030Z,85
2017-06-04T05:21:16.925Z,90
2017-06-04T05:22:25.867Z,90
2017-06-04T05:23:34.765Z,95
2017-06-04T05:24:43.658Z,100
2017-06-04T05:25:52.571Z,105
2017-06-04T05:27:01.466Z,110
2017-06-04T05:28:10.367Z,115
2017-06-04T05:29:19.254Z,120
2017-06-04T05:30:28.146Z,125
2017-06-04T05:31:37.040Z,130
2017-06-04T05:32:45.931Z,135
2017-06-04T05:33:55.025Z,140
2017-06-04T05:35:03.915Z,140
2017-06-04T05:36:12.804Z,140
2017-06-04T05:37:22.018Z,140
2017-06-04T05:38:30.917Z,145
2017-06-04T05:39:40.112Z,150
2017-06-04T05:40:49.324Z,150
2017-06-04T05:41:58.218Z,150
2017-06-04T05:43:07.108Z,145
2017-06-04T05:44:15.997Z,145
2017-06-04T05:45:25.046Z,140
2017-06-04T05:46:34.266Z,140
2017-06-04T05:47:43.155Z,145
2017-06-04T05:48:52.045Z,145
2017-06-04T05:50:00.936Z,145
2017-06-04T05:51:09.925Z,145
2017-06-04T05:52:19.465Z,140
2017-06-04T05:53:28.405Z,130
2017-06-04T05:54:37.621Z,120
2017-06-04T05:55:46.539Z,135
2017-06-04T05:56:55.582Z,125
2017-06-04T05:58:04.471Z,115
2017-06-04T05:59:13.366Z,130
2017-06-04T06:00:22.257Z,135
2017-06-04T06:01:31.474Z,155
2017-06-04T06:02:40.516Z,155
2017-06-04T06:03:49.408Z,160
2017-06-04T06:04:58.301Z,170
2017-06-04T06:06:07.192Z,160
2017-06-04T06:07:16.088Z,150
2017-06-04T06:08:25.010Z,155
2017-06-04T06:09:33.902Z,130
2017-06-04T06:10:43.119Z,120
2017-06-04T06:11:52.016Z,150
2017-06-04T06:13:01.228Z,125
2017-06-04T06:14:10.441Z,145
2017-06-04T06:15:19.655Z,175
2017-06-04T06:16:28.560Z,155
2017-06-04T06:17:37.491Z,175
2017-06-04T06:18:46.378Z,190
2017-06-04T06:19:55.894Z,200
2017-06-04T06:21:05.437Z,210
2017-06-04T06:22:14.652Z,215
2017-06-04T06:23:23.540Z,210
2017-06-04T06:24:32.436Z,220
2017-06-04T06:25:41.431Z,235
2017-06-04T06:26:50.322Z,250
2017-06-04T06:27:59.215Z,265
2017-06-04T06:29:08.431Z,245
2017-06-04T06:30:17.323Z,175
2017-06-04T06:31:26.594Z,180
2017-06-04T06:32:35.488Z,255
2017-06-04T06:33:44.381Z,255
2017-06-04T06:34:53.275Z,255
2017-06-04T06:36:02.170Z,240
2017-06-04T06:37:11.710Z,275
2017-06-04T06:38:20.603Z,230
2017-06-04T06:39:30.142Z,230
2017-06-04T06:40:39.030Z,310
2017-06-04T06:41:47.927Z,305
2017-06-04T06:42:57.118Z,320
2017-06-04T06:44:06.657Z,315
2017-06-04T06:45:15.872Z,300
2017-06-04T06:46:24.765Z,315
2017-06-04T06:47:33.984Z,290
2017-06-04T06:48:43.221Z,310
2017-06-04T06:49:52.767Z,315
2017-06-04T06:51:01.661Z,325
2017-06-04T06:52:10.555Z,335
2017-06-04T06:53:19.448Z,340
2017-06-04T06:54:28.641Z,310
2017-06-04T06:55:37.540Z,300
2017-06-04T06:56:46.758Z,320
2017-06-04T06:57:55.645Z,315
2017-06-04T06:59:04.866Z,345
2017-06-04T07:00:14.083Z,315
2017-06-04T07:01:23.299Z,390
2017-06-04T07:02:32.185Z,385
2017-06-04T07:03:41.078Z,375
2017-06-04T07:04:49.969Z,380
2017-06-04T07:05:59.169Z,380
2017-06-04T07:07:08.389Z,365
2017-06-04T07:08:17.284Z,375
2017-06-04T07:09:26.501Z,380
2017-06-04T07:10:35.392Z,390
2017-06-04T07:11:45.419Z,385
2017-06-04T07:12:54.639Z,395
2017-06-04T07:14:03.885Z,395
2017-06-04T07:15:12.784Z,400
2017-06-04T07:16:21.674Z,385
2017-06-04T07:17:30.667Z,380
2017-06-04T07:18:40.207Z,360
2017-06-04T07:19:49.101Z,345
2017-06-04T07:20:58.314Z,430
2017-06-04T07:22:07.206Z,455
2017-06-04T07:23:16.254Z,475
2017-06-04T07:24:25.471Z,465
2017-06-04T07:25:34.367Z,460
2017-06-04T07:26:43.263Z,470
2017-06-04T07:27:52.488Z,435
2017-06-04T07:29:01.485Z,455
2017-06-04T07:30:10.707Z,445
2017-06-04T07:31:19.600Z,445
2017-06-04T07:32:28.494Z,430
2017-06-04T07:33:37.386Z,425
2017-06-04T07:34:46.328Z,405
2017-06-04T07:35:55.224Z,395
2017-06-04T07:37:04.442Z,400
2017-06-04T07:38:13.665Z,415
2017-06-04T07:39:22.881Z,435
2017-06-04T07:40:31.878Z,460
2017-06-04T07:41:40.799Z,480
2017-06-04T07:42:49.698Z,500
2017-06-04T07:43:59.269Z,525
2017-06-04T07:45:08.164Z,530
2017-06-04T07:46:17.057Z,535
2017-06-04T07:47:26.278Z,535
2017-06-04T07:48:35.493Z,535
2017-06-04T07:49:44.410Z,525
2017-06-04T07:50:53.307Z,515
2017-06-04T07:52:02.525Z,505
2017-06-04T07:53:11.419Z,495
2017-06-04T07:54:20.310Z,495
2017-06-04T07:55:29.204Z,495
2017-06-04T07:56:38.755Z,500
2017-06-04T07:57:48.126Z,500
2017-06-04T07:58:57.019Z,500
2017-06-04T08:00:05.909Z,505
2017-06-04T08:01:15.130Z,505
2017-06-04T08:02:24.031Z,505
2017-06-04T08:03:32.926Z,500
2017-06-04T08:04:41.847Z,500
2017-06-04T08:05:50.745Z,505
2017-06-04T08:06:59.970Z,515
2017-06-04T08:08:08.865Z,520
2017-06-04T08:09:17.807Z,525
2017-06-04T08:10:27.028Z,525
2017-06-04T08:11:35.921Z,525
2017-06-04T08:12:44.812Z,525
2017-06-04T08:13:53.704Z,525
2017-06-04T08:15:02.745Z,535
2017-06-04T08:16:11.639Z,535
2017-06-04T08:17:20.853Z,540
2017-06-04T08:18:29.745Z,545
2017-06-04T08:19:38.640Z,550
2017-06-04T08:20:47.964Z,550
2017-06-04T08:21:56.856Z,550
2017-06-04T08:23:06.075Z,550
2017-06-04T08:24:15.289Z,545
2017-06-04T08:25:24.191Z,540
2017-06-04T08:26:33.563Z,540
2017-06-04T08:27:42.789Z,525
2017-06-04T08:28:51.682Z,515
2017-06-04T08:30:00.901Z,510
2017-06-04T08:31:09.797Z,495
2017-06-04T08:32:19.667Z,480
2017-06-04T08:33:28.888Z,480
2017-06-04T08:34:38.773Z,475
2017-06-04T08:35:48.021Z,470
2017-06-04T08:36:57.254Z,475
2017-06-04T08:38:06.200Z,480
2017-06-04T08:39:15.093Z,480
2017-06-04T08:40:23.993Z,470
2017-06-04T08:41:32.889Z,465
2017-06-04T08:42:42.108Z,465
2017-06-04T08:43:51.310Z,470
2017-06-04T08:45:00.202Z,475
2017-06-04T08:46:09.427Z,490
2017-06-04T08:47:18.324Z,490
2017-06-04T08:48:27.547Z,485
2017-06-04T08:49:36.592Z,475
2017-06-04T08:50:45.487Z,470
2017-06-04T08:51:54.710Z,455
2017-06-04T08:53:03.929Z,455
2017-06-04T08:54:12.827Z,450
2017-06-04T08:55:21.824Z,470
2017-06-04T08:56:30.733Z,450
2017-06-04T08:57:40.287Z,450
2017-06-04T08:58:49.507Z,475
2017-06-04T08:59:58.414Z,495
2017-06-04T09:01:07.611Z,460
2017-06-04T09:02:16.828Z,435
2017-06-04T09:03:25.729Z,405
2017-06-04T09:04:34.947Z,415
2017-06-04T09:05:43.845Z,425
2017-06-04T09:06:53.218Z,415
2017-06-04T09:08:02.435Z,425
2017-06-04T09:09:11.329Z,425
2017-06-04T09:10:20.223Z,445
2017-06-04T09:11:29.117Z,400
2017-06-04T09:12:38.660Z,375
2017-06-04T09:13:47.554Z,395
2017-06-04T09:14:56.445Z,390
2017-06-04T09:16:05.660Z,415
2017-06-04T09:17:14.905Z,455
2017-06-04T09:18:23.855Z,460
2017-06-04T09:19:32.758Z,465
2017-06-04T09:20:41.653Z,470
2017-06-04T09:21:50.876Z,435
2017-06-04T09:22:59.773Z,465
2017-06-04T09:24:08.673Z,505
2017-06-04T09:25:17.574Z,460
2017-06-04T09:26:26.469Z,415
2017-06-04T09:27:35.689Z,390
2017-06-04T09:28:44.587Z,365
2017-06-04T09:29:53.633Z,330
2017-06-04T09:31:03.181Z,325
2017-06-04T09:32:12.073Z,310
2017-06-04T09:33:20.969Z,305
2017-06-04T09:34:29.862Z,325
2017-06-04T09:35:38.809Z,320
2017-06-04T09:36:47.705Z,315
2017-06-04T09:37:56.932Z,305
2017-06-04T09:39:05.827Z,280
2017-06-04T09:40:14.717Z,255
2017-06-04T09:41:23.707Z,255
2017-06-04T09:42:32.925Z,255
2017-06-04T09:43:41.819Z,255
2017-06-04T09:44:50.720Z,250
2017-06-04T09:45:59.613Z,255
2017-06-04T09:47:09.201Z,265
2017-06-04T09:48:18.095Z,290
2017-06-04T09:49:27.318Z,290
2017-06-04T09:50:36.542Z,300
2017-06-04T09:51:45.433Z,365
2017-06-04T09:52:54.429Z,395
2017-06-04T09:54:03.319Z,410
2017-06-04T09:55:12.215Z,330
2017-06-04T09:56:21.112Z,425
2017-06-04T09:57:30.006Z,450
2017-06-04T09:58:38.998Z,505
2017-06-04T09:59:47.893Z,550
2017-06-04T10:00:57.113Z,485
2017-06-04T10:02:06.329Z,480
2017-06-04T10:03:15.223Z,370
2017-06-04T10:04:24.269Z,350
2017-06-04T10:05:33.162Z,370
2017-06-04T10:06:42.083Z,375
2017-06-04T10:07:50.978Z,480
2017-06-04T10:09:00.194Z,525
2017-06-04T10:10:09.491Z,425
2017-06-04T10:11:18.718Z,470
2017-06-04T10:12:27.610Z,515
2017-06-04T10:13:36.828Z,445
2017-06-04T10:14:45.725Z,450
2017-06-04T10:15:55.091Z,440
2017-06-04T10:17:03.989Z,510
2017-06-04T10:18:12.885Z,445
2017-06-04T10:19:21.779Z,555
2017-06-04T10:20:30.673Z,610
2017-06-04T10:21:39.617Z,635
2017-06-04T10:22:48.516Z,530
2017-06-04T10:23:57.417Z,540
2017-06-04T10:25:06.311Z,450
2017-06-04T10:26:15.206Z,470
2017-06-04T10:27:24.146Z,545
2017-06-04T10:28:33.370Z,315
2017-06-04T10:29:42.594Z,330
2017-06-04T10:30:51.819Z,415
2017-06-04T10:32:00.711Z,475
2017-06-04T10:33:09.612Z,495
2017-06-04T10:34:18.508Z,460
2017-06-04T10:35:27.412Z,460
2017-06-04T10:36:36.309Z,395
2017-06-04T10:37:45.533Z,395
2017-06-04T10:38:54.751Z,425
2017-06-04T10:40:03.981Z,290
2017-06-04T10:41:12.878Z,285
2017-06-04T10:42:22.100Z,290
2017-06-04T10:43:30.993Z,300
2017-06-04T10:44:40.041Z,315
2017-06-04T10:45:49.259Z,360
2017-06-04T10:46:58.512Z,410
2017-06-04T10:48:07.405Z,410
2017-06-04T10:49:16.297Z,445
2017-06-04T10:50:25.492Z,500
2017-06-04T10:51:34.389Z,400
2017-06-04T10:52:43.615Z,435
2017-06-04T10:53:52.507Z,360
2017-06-04T10:55:01.728Z,325
2017-06-04T10:56:10.949Z,410
2017-06-04T10:57:20.174Z,510
2017-06-04T10:58:29.076Z,460
2017-06-04T10:59:37.974Z,450
2017-06-04T11:00:46.887Z,520
2017-06-04T11:01:56.208Z,505
2017-06-04T11:03:05.100Z,530
2017-06-04T11:04:13.996Z,625
2017-06-04T11:05:22.897Z,515
2017-06-04T11:06:31.794Z,540
2017-06-04T11:07:40.690Z,525
2017-06-04T11:08:49.592Z,440
2017-06-04T11:09:58.492Z,480
2017-06-04T11:11:07.388Z,455
2017-06-04T11:12:16.288Z,475
2017-06-04T11:13:25.808Z,425
2017-06-04T11:14:35.026Z,415
2017-06-04T11:15:43.931Z,435
2017-06-04T11:16:52.828Z,495
2017-06-04T11:18:01.721Z,555
2017-06-04T11:19:10.822Z,600
2017-06-04T11:20:20.041Z,535
2017-06-04T11:21:28.935Z,555
2017-06-04T11:22:38.163Z,490
2017-06-04T11:23:47.064Z,500
2017-06-04T11:24:56.110Z,440
2017-06-04T11:26:05.328Z,420
2017-06-04T11:27:14.560Z,380
2017-06-04T11:28:23.789Z,395
2017-06-04T11:29:33.012Z,395
2017-06-04T11:30:42.007Z,450
2017-06-04T11:31:51.229Z,530
2017-06-04T11:33:00.125Z,625
2017-06-04T11:34:09.348Z,615
2017-06-04T11:35:18.251Z,510
2017-06-04T11:36:27.148Z,435
2017-06-04T11:37:36.697Z,420
2017-06-04T11:38:45.597Z,350
2017-06-04T11:39:54.819Z,345
2017-06-04T11:41:03.714Z,360
2017-06-04T11:42:12.610Z,400
2017-06-04T11:43:21.509Z,410
2017-06-04T11:44:30.408Z,425
2017-06-04T11:45:39.309Z,450
2017-06-04T11:46:48.529Z,520
2017-06-04T11:47:57.677Z,525
2017-06-04T11:49:06.576Z,570
2017-06-04T11:50:15.793Z,610
2017-06-04T11:51:24.696Z,1750
2017-06-04T11:52:33.594Z,495
2017-06-04T11:53:42.543Z,570
2017-06-04T11:54:51.443Z,760
2017-06-04T11:56:00.672Z,1130
2017-06-04T11:57:09.571Z,575
2017-06-04T11:58:18.494Z,690
2017-06-04T11:59:27.792Z,455
2017-06-04T12:00:36.690Z,2925
2017-06-04T12:01:46.237Z,3705
2017-06-04T12:02:55.463Z,3265
2017-06-04T12:04:04.716Z,4100
2017-06-04T12:05:14.191Z,3525
2017-06-04T12:06:23.090Z,3450
2017-06-04T12:07:31.989Z,3310
2017-06-04T12:08:41.218Z,635
2017-06-04T12:09:50.118Z,555
2017-06-04T12:10:59.547Z,550
2017-06-04T12:12:08.449Z,605
2017-06-04T12:13:17.352Z,635
2017-06-04T12:14:26.252Z,610
2017-06-04T12:15:35.196Z,835
2017-06-04T12:16:44.845Z,2190
2017-06-04T12:17:53.746Z,730
2017-06-04T12:19:02.971Z,3915
2017-06-04T12:20:11.873Z,3700
2017-06-04T12:21:21.421Z,3755
2017-06-04T12:22:30.802Z,3905
2017-06-04T12:23:40.029Z,3635
2017-06-04T12:24:48.931Z,3980
2017-06-04T12:25:57.837Z,920
2017-06-04T12:27:07.071Z,335
2017-06-04T12:28:16.019Z,345
2017-06-04T12:29:24.922Z,325
2017-06-04T12:30:33.826Z,320
2017-06-04T12:31:42.730Z,325
2017-06-04T12:32:51.630Z,365
2017-06-04T12:34:00.583Z,420
2017-06-04T12:35:09.815Z,2425
2017-06-04T12:36:19.042Z,260
2017-06-04T12:37:27.945Z,210
2017-06-04T12:38:36.849Z,190
2017-06-04T12:39:46.180Z,175
2017-06-04T12:40:55.406Z,175
2017-06-04T12:42:04.323Z,180
2017-06-04T12:43:13.230Z,185
2017-06-04T12:44:22.453Z,200
2017-06-04T12:45:31.401Z,220
2017-06-04T12:46:40.302Z,230
2017-06-04T12:47:50.177Z,210
2017-06-04T12:48:59.076Z,210
2017-06-04T12:50:08.305Z,230
2017-06-04T12:51:17.382Z,240
2017-06-04T12:52:26.282Z,260
2017-06-04T12:53:35.178Z,275
2017-06-04T12:54:44.432Z,290
2017-06-04T12:55:53.654Z,305
2017-06-04T12:57:03.257Z,320
2017-06-04T12:58:12.512Z,340
2017-06-04T12:59:21.411Z,375
2017-06-04T13:00:30.632Z,415
2017-06-04T13:01:39.530Z,465
2017-06-04T13:02:48.624Z,510
2017-06-04T13:03:57.846Z,550
2017-06-04T13:05:06.748Z,580
2017-06-04T13:06:15.655Z,635
2017-06-04T13:07:24.885Z,765
2017-06-04T13:08:33.939Z,1130
2017-06-04T13:09:42.837Z,3540
2017-06-04T13:10:51.743Z,3360
2017-06-04T13:12:00.641Z,800
2017-06-04T13:13:09.541Z,715
2017-06-04T13:14:18.441Z,615
2017-06-04T13:15:27.990Z,545
2017-06-04T13:16:36.889Z,485
2017-06-04T13:17:45.785Z,420
2017-06-04T13:18:55.017Z,395
2017-06-04T13:20:04.072Z,390
2017-06-04T13:21:12.973Z,395
2017-06-04T13:22:21.874Z,425
2017-06-04T13:23:30.775Z,475
2017-06-04T13:24:39.676Z,510
2017-06-04T13:25:49.200Z,530
2017-06-04T13:26:58.748Z,550
2017-06-04T13:28:07.651Z,555
2017-06-04T13:29:16.552Z,555
2017-06-04T13:30:25.446Z,590
2017-06-04T13:31:34.821Z,960
2017-06-04T13:32:44.042Z,655
2017-06-04T13:33:52.937Z,690
2017-06-04T13:35:01.836Z,720
2017-06-04T13:36:11.071Z,820
2017-06-04T13:37:20.117Z,835
2017-06-04T13:38:29.016Z,725
2017-06-04T13:39:37.915Z,820
2017-06-04T13:40:46.815Z,570
2017-06-04T13:41:56.040Z,475
2017-06-04T13:43:05.089Z,485
2017-06-04T13:44:14.011Z,435
2017-06-04T13:45:22.911Z,380
2017-06-04T13:46:31.809Z,345
2017-06-04T13:47:41.032Z,335
2017-06-04T13:48:49.933Z,310
2017-06-04T13:49:59.480Z,285
2017-06-04T13:51:08.707Z,270
2017-06-04T13:52:17.606Z,255
2017-06-04T13:53:26.833Z,260
2017-06-04T13:54:36.055Z,265
2017-06-04T13:55:44.954Z,275
2017-06-04T13:56:54.176Z,255
2017-06-04T13:58:03.070Z,225
2017-06-04T13:59:11.970Z,220
2017-06-04T14:00:20.918Z,210
2017-06-04T14:01:29.813Z,215
2017-06-04T14:02:38.709Z,220
2017-06-04T14:03:47.928Z,220
2017-06-04T14:04:56.825Z,235
2017-06-04T14:06:06.044Z,255
2017-06-04T14:07:15.268Z,285
2017-06-04T14:08:24.162Z,330
2017-06-04T14:09:33.058Z,380
2017-06-04T14:10:42.281Z,435
2017-06-04T14:11:51.231Z,495
2017-06-04T14:13:00.150Z,575
2017-06-04T14:14:09.047Z,665
2017-06-04T14:15:18.268Z,775
2017-06-04T14:16:27.163Z,890
2017-06-04T14:17:36.434Z,1130
2017-06-04T14:18:45.327Z,1435
2017-06-04T14:19:54.222Z,1260
2017-06-04T14:21:03.120Z,1155
2017-06-04T14:22:12.344Z,1795
2017-06-04T14:23:21.390Z,1355
2017-06-04T14:24:30.288Z,2025
2017-06-04T14:25:39.189Z,1625
2017-06-04T14:26:48.411Z,2545
2017-06-04T14:27:57.313Z,3070
2017-06-04T14:29:06.420Z,2400
2017-06-04T14:30:15.319Z,1375
2017-06-04T14:31:24.233Z,3365
2017-06-04T14:32:33.460Z,830
2017-06-04T14:33:42.373Z,1030
2017-06-04T14:34:51.426Z,3280
2017-06-04T14:36:00.329Z,3535
2017-06-04T14:37:09.560Z,3380
2017-06-04T14:38:18.788Z,3265
2017-06-04T14:39:27.694Z,2055
2017-06-04T14:40:36.751Z,1160
2017-06-04T14:41:45.662Z,2260
2017-06-04T14:42:54.567Z,2165
2017-06-04T14:44:03.475Z,930
2017-06-04T14:45:12.382Z,820
2017-06-04T14:46:21.712Z,710
2017-06-04T14:47:30.617Z,630
2017-06-04T14:48:39.519Z,590
2017-06-04T14:49:48.751Z,645
2017-06-04T14:50:57.688Z,1025
2017-06-04T14:52:06.693Z,1065
2017-06-04T14:53:15.592Z,3510
2017-06-04T14:54:24.504Z,3365
2017-06-04T14:55:33.733Z,1650
2017-06-04T14:56:42.968Z,1175
2017-06-04T14:57:52.177Z,2540
2017-06-04T14:59:01.083Z,3155
2017-06-04T15:00:09.991Z,3005
2017-06-04T15:01:18.893Z,2500
2017-06-04T15:02:27.800Z,3080
2017-06-04T15:03:37.182Z,3170
2017-06-04T15:04:46.417Z,3190
2017-06-04T15:05:55.649Z,3140
2017-06-04T15:07:04.564Z,2480
2017-06-04T15:08:13.796Z,1235
2017-06-04T15:09:23.181Z,675
2017-06-04T15:10:32.091Z,585
2017-06-04T15:11:41.001Z,505
2017-06-04T15:12:50.231Z,430
2017-06-04T15:13:59.137Z,355
2017-06-04T15:15:08.674Z,315
2017-06-04T15:16:18.225Z,280
2017-06-04T15:17:27.450Z,245
2017-06-04T15:18:36.354Z,215
2017-06-04T15:19:45.586Z,190
2017-06-04T15:20:55.239Z,175
2017-06-04T15:22:04.469Z,160
2017-06-04T15:23:13.372Z,150
2017-06-04T15:24:22.274Z,135
2017-06-04T15:25:31.175Z,115
2017-06-04T15:26:40.375Z,100
2017-06-04T15:27:49.272Z,85
2017-06-04T15:28:58.173Z,75
2017-06-04T15:30:07.075Z,70
2017-06-04T15:31:15.978Z,65
2017-06-04T15:32:24.910Z,65
2017-06-04T15:33:34.136Z,65
2017-06-04T15:34:43.358Z,80
2017-06-04T15:35:52.254Z,95
2017-06-04T15:37:01.484Z,120
2017-06-04T15:38:10.633Z,140
2017-06-04T15:39:19.856Z,165
2017-06-04T15:40:28.753Z,210
2017-06-04T15:41:37.652Z,265
2017-06-04T15:42:46.873Z,340
2017-06-04T15:43:55.821Z,410
2017-06-04T15:45:04.717Z,665
2017-06-04T15:46:13.939Z,585
2017-06-04T15:47:23.159Z,565
2017-06-04T15:48:32.379Z,580
2017-06-04T15:49:41.599Z,565
2017-06-04T15:50:50.498Z,545
2017-06-04T15:51:59.716Z,495
2017-06-04T15:53:09.263Z,515
2017-06-04T15:54:18.507Z,520
2017-06-04T15:55:27.410Z,585
2017-06-04T15:56:36.309Z,680
2017-06-04T15:57:45.201Z,830
2017-06-04T15:58:54.112Z,875
2017-06-04T16:00:03.332Z,1065
2017-06-04T16:01:12.603Z,945
2017-06-04T16:02:21.503Z,1095
2017-06-04T16:03:30.399Z,2510
2017-06-04T16:04:39.295Z,1055
2017-06-04T16:05:48.192Z,1005
2017-06-04T16:06:57.242Z,1050